Airfield :
LOGIN :

Register | Disclaimer

   EN    FR    IT 

 










Legend :    VFR   Marginal VFR   IFR   Intensive IFR   Very Intensive IFR
Visi :
Ceiling :
>= 8 km
>= 3000ft
5 to 8 km
1000 to 3000 ft
1500m to 5 km
500 to 1000 ft
800 to 1500m
200 to 500 ft
< 800m
< 200 ft
Symbols :   Thunderstorms  Fog  Heavy snow  Heavy precipitations  Wind > 20 kt
SIGMETs :     Misc.  Thunderstorms  Icing  Turbulence  Mountain Waves  Volcanic Ashes






- Airport Elevation : 202 ft
- IATA code : LGW


EGKK - London Gatwick

CURRENT METAR :
  • 232020Z 27005KT CAVOK 09/03 Q1024

EXPIRED METARs :
  • 231950Z VRB03KT CAVOK 08/02 Q1024
  • 231920Z 30007KT CAVOK 09/01 Q1023
  • 231850Z 30005KT CAVOK 09/02 Q1023
  • 231820Z 29007KT CAVOK 10/02 Q1022
  • 231750Z 29011KT CAVOK 10/01 Q1022

TAF TAF EGKK
Valid from the 23 at 18:00 until the 25 at 00:00 UTC


231702Z 2318/2424 30010KT 9999 SCT040
BECMG 2320/2323 VRB03KT
BECMG 2400/2403 16010KT BKN010
TEMPO 2402/2408 6000 -RADZ BKN006
PROB30
TEMPO 2403/2407 3000 RADZ BKN003
BECMG 2405/2408 23020G32KT
TEMPO 2408/2415 7000 -RA BKN016
PROB40
TEMPO 2409/2415 4000 RA BKN008
BECMG 2415/2418 26016G26KT BKN030
BECMG 2421/2424 27012KT



MET'MAP, your aeronautical weather chart ! - Copyright ORBIFLY December 2007 - Disclaimer

ORBIFLY MET'MAP TEAM :

Programming & Development : Alexandra Zaïnal
Concept & original design : Baudouin d'Aumeries
Assistance for programming : Marc-Olivier Méhu
Technical & hardware support : Manuel Goepfert

Contact : metmap@orbifly.com




SOURCES & CREDITS :

   NOAA